createdAt,value
2018-03-16T00:00:48.532Z,83.83
2018-03-16T00:01:48.530Z,83.26
2018-03-16T00:02:48.541Z,83.07
2018-03-16T00:03:48.545Z,81.93
2018-03-16T00:04:48.548Z,81.46
2018-03-16T00:05:48.556Z,81.46
2018-03-16T00:06:48.561Z,82.12
2018-03-16T00:07:48.566Z,81.65
2018-03-16T00:08:48.575Z,81.46
2018-03-16T00:09:48.585Z,81.74
2018-03-16T00:10:48.589Z,81.27
2018-03-16T00:11:48.597Z,81.56
2018-03-16T00:12:48.596Z,82.41
2018-03-16T00:13:48.605Z,82.03
2018-03-16T00:14:48.612Z,81.74
2018-03-16T00:15:48.621Z,81.84
2018-03-16T00:16:48.624Z,81.37
2018-03-16T00:17:48.630Z,81.46
2018-03-16T00:18:48.632Z,80.71
2018-03-16T00:19:49.641Z,80.24
2018-03-16T00:20:48.645Z,80.52
2018-03-16T00:21:48.656Z,80.62
2018-03-16T00:22:48.662Z,80.52
2018-03-16T00:23:48.662Z,80.80
2018-03-16T00:24:48.668Z,80.62
2018-03-16T00:25:48.680Z,80.33
2018-03-16T00:26:48.680Z,80.80
2018-03-16T00:27:48.692Z,80.62
2018-03-16T00:28:48.692Z,80.71
2018-03-16T00:29:48.704Z,81.74
2018-03-16T00:30:48.709Z,81.46
2018-03-16T00:31:48.710Z,81.46
2018-03-16T00:32:48.717Z,81.18
2018-03-16T00:33:48.723Z,81.18
2018-03-16T00:34:48.728Z,81.27
2018-03-16T00:35:48.750Z,81.18
2018-03-16T00:36:48.738Z,82.03
2018-03-16T00:37:48.763Z,82.98
2018-03-16T00:38:48.753Z,82.50
2018-03-16T00:39:48.757Z,83.07
2018-03-16T00:40:48.773Z,82.88
2018-03-16T00:41:48.771Z,83.17
2018-03-16T00:42:48.781Z,83.07
2018-03-16T00:43:48.786Z,82.88
2018-03-16T00:44:48.794Z,83.07
2018-03-16T00:45:48.798Z,83.36
2018-03-16T00:46:48.802Z,83.17
2018-03-16T00:47:48.810Z,82.79
2018-03-16T00:48:48.811Z,82.50
2018-03-16T00:49:48.817Z,82.98
2018-03-16T00:50:48.823Z,82.79
2018-03-16T00:51:48.833Z,82.69
2018-03-16T00:52:48.833Z,82.41
2018-03-16T00:53:48.846Z,82.50
2018-03-16T00:54:48.852Z,82.60
2018-03-16T00:55:48.852Z,82.41
2018-03-16T00:56:48.856Z,82.60
2018-03-16T00:57:48.872Z,83.17
2018-03-16T00:58:48.870Z,83.26
2018-03-16T00:59:48.882Z,83.26
2018-03-16T01:00:48.893Z,83.17
2018-03-16T01:01:48.892Z,83.17
2018-03-16T01:02:48.893Z,82.79
2018-03-16T01:03:48.898Z,82.69
2018-03-16T01:04:48.904Z,83.17
2018-03-16T01:05:48.911Z,83.45
2018-03-16T01:06:48.917Z,83.36
2018-03-16T01:07:48.921Z,82.98
2018-03-16T01:08:48.933Z,82.69
2018-03-16T01:09:48.939Z,83.64
2018-03-16T01:10:48.938Z,83.36
2018-03-16T01:11:48.945Z,82.88
2018-03-16T01:12:48.952Z,82.98
2018-03-16T01:13:48.963Z,82.98
2018-03-16T01:14:48.962Z,82.60
2018-03-16T01:15:48.968Z,82.31
2018-03-16T01:16:48.980Z,82.60
2018-03-16T01:17:48.980Z,82.79
2018-03-16T01:18:48.984Z,82.60
2018-03-16T01:19:48.991Z,82.98
2018-03-16T01:20:49.002Z,82.41
2018-03-16T01:21:49.008Z,82.98
2018-03-16T01:22:49.016Z,82.60
2018-03-16T01:23:49.019Z,83.26
2018-03-16T01:24:49.020Z,83.36
2018-03-16T01:25:49.033Z,82.79
2018-03-16T01:26:49.035Z,82.88
2018-03-16T01:27:49.043Z,82.88
2018-03-16T01:28:49.048Z,82.60
2018-03-16T01:29:49.049Z,82.69
2018-03-16T01:30:49.056Z,81.93
2018-03-16T01:31:49.061Z,82.12
2018-03-16T01:32:49.072Z,82.03
2018-03-16T01:33:49.072Z,82.50
2018-03-16T01:34:49.082Z,82.41
2018-03-16T01:35:49.084Z,82.50
2018-03-16T01:36:49.087Z,81.93
2018-03-16T01:37:49.099Z,82.03
2018-03-16T01:38:49.099Z,82.03
2018-03-16T01:39:49.104Z,80.62
2018-03-16T01:40:49.110Z,79.86
2018-03-16T01:41:49.116Z,79.48
2018-03-16T01:42:49.120Z,79.67
2018-03-16T01:43:49.135Z,79.76
2018-03-16T01:44:49.133Z,79.00
2018-03-16T01:45:49.139Z,78.81
2018-03-16T01:46:49.150Z,78.81
2018-03-16T01:47:49.154Z,78.72
2018-03-16T01:48:49.160Z,78.72
2018-03-16T01:49:49.162Z,78.72
2018-03-16T01:50:49.173Z,78.91
2018-03-16T01:51:49.175Z,78.81
2018-03-16T01:52:49.178Z,78.91
2018-03-16T01:53:49.190Z,79.67
2018-03-16T01:54:49.193Z,80.99
2018-03-16T01:55:49.194Z,80.52
2018-03-16T01:56:49.200Z,80.24
2018-03-16T01:57:49.210Z,79.29
2018-03-16T01:58:49.210Z,79.67
2018-03-16T01:59:49.222Z,79.57
2018-03-16T02:00:49.228Z,79.76
2018-03-16T02:01:49.227Z,79.00
2018-03-16T02:02:49.234Z,78.91
2018-03-16T02:03:49.243Z,79.00
2018-03-16T02:04:49.244Z,78.81
2018-03-16T02:05:49.252Z,78.72
2018-03-16T02:06:49.254Z,79.00
2018-03-16T02:07:49.262Z,78.34
2018-03-16T02:08:49.271Z,78.44
2018-03-16T02:09:49.278Z,78.25
2018-03-16T02:10:49.281Z,78.16
2018-03-16T02:11:49.288Z,78.44
2018-03-16T02:12:49.294Z,78.63
2018-03-16T02:13:49.300Z,77.97
2018-03-16T02:14:49.300Z,77.21
2018-03-16T02:15:49.311Z,77.12
2018-03-16T02:16:49.315Z,76.45
2018-03-16T02:17:49.316Z,75.79
2018-03-16T02:18:49.325Z,75.89
2018-03-16T02:19:49.334Z,75.70
2018-03-16T02:20:49.337Z,75.70
2018-03-16T02:21:49.343Z,75.51
2018-03-16T02:22:49.347Z,75.89
2018-03-16T02:23:49.348Z,75.04
2018-03-16T02:24:49.354Z,75.79
2018-03-16T02:25:49.358Z,75.13
2018-03-16T02:26:49.371Z,75.79
2018-03-16T02:27:49.377Z,76.07
2018-03-16T02:28:49.382Z,75.79
2018-03-16T02:29:49.387Z,75.79
2018-03-16T02:30:49.385Z,76.26
2018-03-16T02:31:49.401Z,76.83
2018-03-16T02:32:49.406Z,76.36
2018-03-16T02:33:49.410Z,76.45
2018-03-16T02:34:49.409Z,76.64
2018-03-16T02:35:49.414Z,76.07
2018-03-16T02:36:49.420Z,75.70
2018-03-16T02:37:49.426Z,75.23
2018-03-16T02:38:49.436Z,75.32
2018-03-16T02:39:49.441Z,75.04
2018-03-16T02:40:49.445Z,74.85
2018-03-16T02:41:49.452Z,74.85
2018-03-16T02:42:49.452Z,74.66
2018-03-16T02:43:49.461Z,73.71
2018-03-16T02:44:49.463Z,72.49
2018-03-16T02:45:49.471Z,71.35
2018-03-16T02:46:49.475Z,70.97
2018-03-16T02:47:49.487Z,70.21
2018-03-16T02:48:49.485Z,69.65
2018-03-16T02:49:49.492Z,69.18
2018-03-16T02:50:49.505Z,69.18
2018-03-16T02:51:49.501Z,69.27
2018-03-16T02:52:49.511Z,68.52
2018-03-16T02:53:49.513Z,68.33
2018-03-16T02:54:49.517Z,68.14
2018-03-16T02:55:49.522Z,67.47
2018-03-16T02:56:49.527Z,66.72
2018-03-16T02:57:49.545Z,66.25
2018-03-16T02:58:49.541Z,66.35
2018-03-16T02:59:49.548Z,67.00
2018-03-16T03:00:49.554Z,67.85
2018-03-16T03:01:49.559Z,68.42
2018-03-16T03:02:49.557Z,68.80
2018-03-16T03:03:49.569Z,68.61
2018-03-16T03:04:49.574Z,68.33
2018-03-16T03:05:49.572Z,68.23
2018-03-16T03:06:49.625Z,68.71
2018-03-16T03:07:49.590Z,68.80
2018-03-16T03:08:49.589Z,67.76
2018-03-16T03:09:49.600Z,67.29
2018-03-16T03:10:49.604Z,66.35
2018-03-16T03:11:49.609Z,65.59
2018-03-16T03:12:49.615Z,65.68
2018-03-16T03:13:49.618Z,64.54
2018-03-16T03:14:49.617Z,63.98
2018-03-16T03:15:49.629Z,64.73
2018-03-16T03:16:49.629Z,65.87
2018-03-16T03:17:49.633Z,66.16
2018-03-16T03:18:49.644Z,66.06
2018-03-16T03:19:49.648Z,65.11
2018-03-16T03:20:49.648Z,65.11
2018-03-16T03:21:49.657Z,65.59
2018-03-16T03:22:49.661Z,66.06
2018-03-16T03:23:49.661Z,67.19
2018-03-16T03:24:49.667Z,66.06
2018-03-16T03:25:49.674Z,65.78
2018-03-16T03:26:49.677Z,64.92
2018-03-16T03:27:49.681Z,65.02
2018-03-16T03:28:49.689Z,65.02
2018-03-16T03:29:49.691Z,64.64
2018-03-16T03:30:49.700Z,65.40
2018-03-16T03:31:49.699Z,66.25
2018-03-16T03:32:49.705Z,67.10
2018-03-16T03:33:49.709Z,67.19
2018-03-16T03:34:49.719Z,65.78
2018-03-16T03:35:49.723Z,65.49
2018-03-16T03:36:49.729Z,65.68
2018-03-16T03:37:49.732Z,65.49
2018-03-16T03:38:49.733Z,65.11
2018-03-16T03:39:49.736Z,63.98
2018-03-16T03:40:49.747Z,64.07
2018-03-16T03:41:49.746Z,62.37
2018-03-16T03:42:49.750Z,61.71
2018-03-16T03:43:49.761Z,62.37
2018-03-16T03:44:49.767Z,63.42
2018-03-16T03:45:49.764Z,63.60
2018-03-16T03:46:49.776Z,63.79
2018-03-16T03:47:49.774Z,64.54
2018-03-16T03:48:49.778Z,64.54
2018-03-16T03:49:49.790Z,64.54
2018-03-16T03:50:49.788Z,63.04
2018-03-16T03:51:49.792Z,61.52
2018-03-16T03:52:49.798Z,61.90
2018-03-16T03:53:49.803Z,62.75
2018-03-16T03:54:49.814Z,63.51
2018-03-16T03:55:49.811Z,63.98
2018-03-16T03:56:49.816Z,64.64
2018-03-16T03:57:49.826Z,65.30
2018-03-16T03:58:49.826Z,65.02
2018-03-16T03:59:49.836Z,64.45
2018-03-16T04:00:49.838Z,64.26
2018-03-16T04:01:49.847Z,64.17
2018-03-16T04:02:49.845Z,64.64
2018-03-16T04:03:49.853Z,64.45
2018-03-16T04:04:49.860Z,63.98
2018-03-16T04:05:49.860Z,64.54
2018-03-16T04:06:49.865Z,64.54
2018-03-16T04:07:49.875Z,64.07
2018-03-16T04:08:49.881Z,64.64
2018-03-16T04:09:49.880Z,63.42
2018-03-16T04:10:49.893Z,62.66
2018-03-16T04:11:49.894Z,63.51
2018-03-16T04:12:49.903Z,64.54
2018-03-16T04:13:49.906Z,65.21
2018-03-16T04:14:49.945Z,65.49
2018-03-16T04:15:49.916Z,65.68
2018-03-16T04:16:49.921Z,66.06
2018-03-16T04:17:49.926Z,65.78
2018-03-16T04:18:49.925Z,66.06
2018-03-16T04:19:49.938Z,66.16
2018-03-16T04:20:49.936Z,66.06
2018-03-16T04:21:49.941Z,65.97
2018-03-16T04:22:49.946Z,66.53
2018-03-16T04:23:49.956Z,67.19
2018-03-16T04:24:49.962Z,67.47
2018-03-16T04:25:49.965Z,67.19
2018-03-16T04:26:49.966Z,67.19
2018-03-16T04:27:49.972Z,67.10
2018-03-16T04:28:49.978Z,67.47
2018-03-16T04:29:49.983Z,67.47
2018-03-16T04:30:49.993Z,67.47
2018-03-16T04:31:50.005Z,67.57
2018-03-16T04:32:50.004Z,68.23
2018-03-16T04:33:50.008Z,68.23
2018-03-16T04:34:50.015Z,68.90
2018-03-16T04:35:50.019Z,68.80
2018-03-16T04:36:50.026Z,68.80
2018-03-16T04:37:50.024Z,68.61
2018-03-16T04:38:50.041Z,68.23
2018-03-16T04:39:50.049Z,68.14
2018-03-16T04:40:50.040Z,68.33
2018-03-16T04:41:50.052Z,68.42
2018-03-16T04:42:50.061Z,68.71
2018-03-16T04:43:50.060Z,69.09
2018-03-16T04:44:50.066Z,69.46
2018-03-16T04:45:50.073Z,69.37
2018-03-16T04:46:50.078Z,69.09
2018-03-16T04:47:50.082Z,69.65
2018-03-16T04:48:50.094Z,70.88
2018-03-16T04:49:50.089Z,70.69
2018-03-16T04:50:50.104Z,70.69
2018-03-16T04:51:50.104Z,71.07
2018-03-16T04:52:50.108Z,71.07
2018-03-16T04:53:50.109Z,71.35
2018-03-16T04:54:50.114Z,71.35
2018-03-16T04:55:50.124Z,71.45
2018-03-16T04:56:50.126Z,71.16
2018-03-16T04:57:50.137Z,71.54
2018-03-16T04:58:50.142Z,70.78
2018-03-16T04:59:50.149Z,70.78
2018-03-16T05:00:50.157Z,70.59
2018-03-16T05:01:50.156Z,70.21
2018-03-16T05:02:50.162Z,69.74
2018-03-16T05:03:50.166Z,69.74
2018-03-16T05:04:50.168Z,69.93
2018-03-16T05:05:50.177Z,70.03
2018-03-16T05:06:50.178Z,70.21
2018-03-16T05:07:50.199Z,70.69
2018-03-16T05:08:50.199Z,70.31
2018-03-16T05:09:50.206Z,70.88
2018-03-16T05:10:50.205Z,70.97
2018-03-16T05:11:50.210Z,71.45
2018-03-16T05:12:50.218Z,72.02
2018-03-16T05:13:50.226Z,72.58
2018-03-16T05:14:50.226Z,72.96
2018-03-16T05:15:50.230Z,73.62
2018-03-16T05:16:50.237Z,74.09
2018-03-16T05:17:50.240Z,74.57
2018-03-16T05:18:50.251Z,74.95
2018-03-16T05:19:50.252Z,75.23
2018-03-16T05:20:50.258Z,75.70
2018-03-16T05:21:50.266Z,76.26
2018-03-16T05:22:50.268Z,76.64
2018-03-16T05:23:50.277Z,76.83
2018-03-16T05:24:50.274Z,76.45
2018-03-16T05:25:50.279Z,76.93
2018-03-16T05:26:50.285Z,77.31
2018-03-16T05:27:50.295Z,77.59
2018-03-16T05:28:50.303Z,77.59
2018-03-16T05:29:50.307Z,77.12
2018-03-16T05:30:50.312Z,77.50
2018-03-16T05:31:50.312Z,77.21
2018-03-16T05:32:50.318Z,77.31
2018-03-16T05:33:50.325Z,77.50
2018-03-16T05:34:50.329Z,77.31
2018-03-16T05:35:50.339Z,77.21
2018-03-16T05:36:50.345Z,77.21
2018-03-16T05:37:50.350Z,77.59
2018-03-16T05:38:50.355Z,78.06
2018-03-16T05:39:50.360Z,78.25
2018-03-16T05:40:50.361Z,78.16
2018-03-16T05:41:50.374Z,78.16
2018-03-16T05:42:50.371Z,78.53
2018-03-16T05:43:50.375Z,78.63
2018-03-16T05:44:50.382Z,77.97
2018-03-16T05:45:50.387Z,78.06
2018-03-16T05:46:50.397Z,78.16
2018-03-16T05:47:50.402Z,78.63
2018-03-16T05:48:50.408Z,78.63
2018-03-16T05:49:50.418Z,78.34
2018-03-16T05:50:50.418Z,78.81
2018-03-16T05:51:50.424Z,78.81
2018-03-16T05:52:50.425Z,79.57
2018-03-16T05:53:50.437Z,79.19
2018-03-16T05:54:50.490Z,79.29
2018-03-16T05:55:50.444Z,80.43
2018-03-16T05:56:50.446Z,80.33
2018-03-16T05:57:50.458Z,80.33
2018-03-16T05:58:50.462Z,80.24
2018-03-16T05:59:50.473Z,80.14
2018-03-16T06:00:50.545Z,80.14
2018-03-16T06:01:50.474Z,80.24
2018-03-16T06:02:50.479Z,80.33
2018-03-16T06:03:50.489Z,80.71
2018-03-16T06:04:50.491Z,80.90
2018-03-16T06:05:50.494Z,79.95
2018-03-16T06:06:50.509Z,79.86
2018-03-16T06:07:50.507Z,80.05
2018-03-16T06:08:50.511Z,80.33
2018-03-16T06:09:50.517Z,80.24
2018-03-16T06:10:50.522Z,79.86
2018-03-16T06:11:50.529Z,79.38
2018-03-16T06:12:50.538Z,80.14
2018-03-16T06:13:50.540Z,80.43
2018-03-16T06:14:50.544Z,80.62
2018-03-16T06:15:50.550Z,80.43
2018-03-16T06:16:50.558Z,80.43
2018-03-16T06:17:50.565Z,80.14
2018-03-16T06:18:50.573Z,79.48
2018-03-16T06:19:50.577Z,79.19
2018-03-16T06:20:50.581Z,77.87
2018-03-16T06:21:50.583Z,78.34
2018-03-16T06:22:50.588Z,78.44
2018-03-16T06:23:50.598Z,78.44
2018-03-16T06:24:50.600Z,78.16
2018-03-16T06:25:50.605Z,79.00
2018-03-16T06:26:50.617Z,78.67
2018-03-16T06:27:50.618Z,79.05
2018-03-16T06:28:50.627Z,78.10
2018-03-16T06:29:50.630Z,78.39
2018-03-16T06:30:50.639Z,77.97
2018-03-16T06:31:50.639Z,77.06
2018-03-16T06:32:50.646Z,77.91
2018-03-16T06:33:50.669Z,78.29
2018-03-16T06:34:50.664Z,78.76
2018-03-16T06:35:50.663Z,79.14
2018-03-16T06:36:50.668Z,79.52
2018-03-16T06:37:50.680Z,79.90
2018-03-16T06:38:50.689Z,79.24
2018-03-16T06:39:50.685Z,79.90
2018-03-16T06:40:50.697Z,79.61
2018-03-16T06:41:50.703Z,79.43
2018-03-16T06:42:50.708Z,78.86
2018-03-16T06:43:50.714Z,79.33
2018-03-16T06:44:50.849Z,78.76
2018-03-16T06:45:50.721Z,78.58
2018-03-16T06:46:50.732Z,77.91
2018-03-16T06:47:50.736Z,77.44
2018-03-16T06:48:50.738Z,76.78
2018-03-16T06:49:50.749Z,76.78
2018-03-16T06:50:50.755Z,76.40
2018-03-16T06:51:50.773Z,79.76
2018-03-16T06:52:50.765Z,82.60
2018-03-16T06:53:50.767Z,82.22
2018-03-16T06:54:50.779Z,83.36
2018-03-16T06:55:50.784Z,82.79
2018-03-16T06:56:50.796Z,82.79
2018-03-16T06:57:50.796Z,81.56
2018-03-16T06:58:50.801Z,81.27
2018-03-16T06:59:50.802Z,81.84
2018-03-16T07:00:50.812Z,83.45
2018-03-16T07:01:50.821Z,83.26
2018-03-16T07:02:50.819Z,82.41
2018-03-16T07:03:50.830Z,82.41
2018-03-16T07:04:50.837Z,82.60
2018-03-16T07:05:50.841Z,81.93
2018-03-16T07:06:50.857Z,81.84
2018-03-16T07:07:50.855Z,81.37
2018-03-16T07:08:50.860Z,81.46
2018-03-16T07:09:50.860Z,81.37
2018-03-16T07:10:50.869Z,80.94
2018-03-16T07:11:50.875Z,80.75
2018-03-16T07:12:50.877Z,79.99
2018-03-16T07:13:50.882Z,79.29
2018-03-16T07:14:50.904Z,78.76
2018-03-16T07:15:50.899Z,78.95
2018-03-16T07:16:50.901Z,79.14
2018-03-16T07:17:50.905Z,79.90
2018-03-16T07:18:50.917Z,79.33
2018-03-16T07:19:50.918Z,79.33
2018-03-16T07:20:50.923Z,79.52
2018-03-16T07:21:50.934Z,79.43
2018-03-16T07:22:50.940Z,78.67
2018-03-16T07:23:50.940Z,78.76
2018-03-16T07:24:50.946Z,78.86
2018-03-16T07:25:50.952Z,78.58
2018-03-16T07:26:50.958Z,78.29
2018-03-16T07:27:50.971Z,77.72
2018-03-16T07:28:50.977Z,77.44
2018-03-16T07:29:50.981Z,77.53
2018-03-16T07:30:51.035Z,77.15
2018-03-16T07:31:50.989Z,77.06
2018-03-16T07:32:51.012Z,77.34
2018-03-16T07:33:51.003Z,77.34
2018-03-16T07:34:51.007Z,77.44
2018-03-16T07:35:51.017Z,76.87
2018-03-16T07:36:51.018Z,77.44
2018-03-16T07:37:51.026Z,77.25
2018-03-16T07:38:51.036Z,77.15
2018-03-16T07:39:51.042Z,78.01
2018-03-16T07:40:51.043Z,78.58
2018-03-16T07:41:51.051Z,77.82
2018-03-16T07:42:51.085Z,77.63
2018-03-16T07:43:51.062Z,77.34
2018-03-16T07:44:51.068Z,77.06
2018-03-16T07:45:51.074Z,77.06
2018-03-16T07:46:51.089Z,76.97
2018-03-16T07:47:51.090Z,75.55
2018-03-16T07:48:51.097Z,75.36
2018-03-16T07:49:51.098Z,75.07
2018-03-16T07:50:51.108Z,75.49
2018-03-16T07:51:51.111Z,75.21
2018-03-16T07:52:51.118Z,75.78
2018-03-16T07:53:51.129Z,75.40
2018-03-16T07:54:51.129Z,74.93
2018-03-16T07:55:51.135Z,74.64
2018-03-16T07:56:51.141Z,74.36
2018-03-16T07:57:51.154Z,74.26
2018-03-16T07:58:51.160Z,73.60
2018-03-16T07:59:51.167Z,73.03
2018-03-16T08:00:51.173Z,71.90
2018-03-16T08:01:51.180Z,72.28
2018-03-16T08:02:51.183Z,73.50
2018-03-16T08:03:51.188Z,75.02
2018-03-16T08:04:51.193Z,75.68
2018-03-16T08:05:51.205Z,76.25
2018-03-16T08:06:51.212Z,75.78
2018-03-16T08:07:51.218Z,76.06
2018-03-16T08:08:51.270Z,75.31
2018-03-16T08:09:51.227Z,74.74
2018-03-16T08:10:51.233Z,74.64
2018-03-16T08:11:51.247Z,73.69
2018-03-16T08:12:51.246Z,72.85
2018-03-16T08:13:51.253Z,72.37
2018-03-16T08:14:51.259Z,71.52
2018-03-16T08:15:51.265Z,74.36
2018-03-16T08:16:51.274Z,77.10
2018-03-16T08:17:51.280Z,78.90
2018-03-16T08:18:51.287Z,78.61
2018-03-16T08:19:51.298Z,78.05
2018-03-16T08:20:51.301Z,77.10
2018-03-16T08:21:51.311Z,75.87
2018-03-16T08:22:51.320Z,73.79
2018-03-16T08:23:51.318Z,73.60
2018-03-16T08:24:51.336Z,72.66
2018-03-16T08:25:51.339Z,72.28
2018-03-16T08:26:51.340Z,72.37
2018-03-16T08:27:51.348Z,74.74
2018-03-16T08:28:51.354Z,74.36
2018-03-16T08:29:51.370Z,74.64
2018-03-16T08:30:51.374Z,74.93
2018-03-16T08:31:51.382Z,74.83
2018-03-16T08:32:51.383Z,74.26
2018-03-16T08:33:51.395Z,75.31
2018-03-16T08:34:51.404Z,73.98
2018-03-16T08:35:51.410Z,73.88
2018-03-16T08:36:51.416Z,74.07
2018-03-16T08:37:51.418Z,72.85
2018-03-16T08:38:51.426Z,72.56
2018-03-16T08:39:51.439Z,72.28
2018-03-16T08:40:51.444Z,71.27
2018-03-16T08:41:51.450Z,71.36
2018-03-16T08:42:51.458Z,70.70
2018-03-16T08:43:51.465Z,70.32
2018-03-16T08:44:51.471Z,69.19
2018-03-16T08:45:51.478Z,67.96
2018-03-16T08:46:51.487Z,68.75
2018-03-16T08:47:51.492Z,68.56
2018-03-16T08:48:51.494Z,68.37
2018-03-16T08:49:51.502Z,67.52
2018-03-16T08:50:51.508Z,67.24
2018-03-16T08:51:51.515Z,72.92
2018-03-16T08:52:51.531Z,71.08
2018-03-16T08:53:51.537Z,70.98
2018-03-16T08:54:51.538Z,71.02
2018-03-16T08:55:51.551Z,72.34
2018-03-16T08:56:51.559Z,70.70
2018-03-16T08:57:51.565Z,70.04
2018-03-16T08:58:51.567Z,70.26
2018-03-16T08:59:51.576Z,74.33
2018-03-16T09:00:51.584Z,76.51
2018-03-16T09:01:51.598Z,74.90
2018-03-16T09:02:51.622Z,74.43
2018-03-16T09:03:51.614Z,75.09
2018-03-16T09:04:51.614Z,75.57
2018-03-16T09:05:51.628Z,74.05
2018-03-16T09:06:51.635Z,72.34
2018-03-16T09:07:51.643Z,72.16
2018-03-16T09:08:51.651Z,71.40
2018-03-16T09:09:51.652Z,73.39
2018-03-16T09:10:51.663Z,75.09
2018-03-16T09:11:51.675Z,73.58
2018-03-16T09:12:51.682Z,71.34
2018-03-16T09:13:51.688Z,68.40
2018-03-16T09:14:51.696Z,66.67
2018-03-16T09:15:51.700Z,66.38
2018-03-16T09:16:51.709Z,68.56
2018-03-16T09:17:51.713Z,66.95
2018-03-16T09:18:51.723Z,67.90
2018-03-16T09:19:51.731Z,69.54
2018-03-16T09:20:51.743Z,68.79
2018-03-16T09:21:51.751Z,68.79
2018-03-16T09:22:51.752Z,64.93
2018-03-16T09:23:51.766Z,65.88
2018-03-16T09:24:51.770Z,66.45
2018-03-16T09:25:51.778Z,62.94
2018-03-16T09:26:51.786Z,62.53
2018-03-16T09:27:51.795Z,61.99
2018-03-16T09:28:51.802Z,62.28
2018-03-16T09:29:51.816Z,66.26
2018-03-16T09:30:51.820Z,66.26
2018-03-16T09:31:51.831Z,64.68
2018-03-16T09:32:51.837Z,60.22
2018-03-16T09:33:51.845Z,59.94
2018-03-16T09:34:51.876Z,58.61
2018-03-16T09:35:51.868Z,58.17
2018-03-16T09:36:51.871Z,59.56
2018-03-16T09:37:51.880Z,61.96
2018-03-16T09:38:51.887Z,59.30
2018-03-16T09:39:51.904Z,56.17
2018-03-16T09:40:51.913Z,55.51
2018-03-16T09:41:51.922Z,57.59
2018-03-16T09:42:51.924Z,55.16
2018-03-16T09:43:51.934Z,53.54
2018-03-16T09:44:51.944Z,52.97
2018-03-16T09:45:51.959Z,55.54
2018-03-16T09:46:51.962Z,52.78
2018-03-16T09:47:51.973Z,52.97
2018-03-16T09:48:51.982Z,52.85
2018-03-16T09:49:51.993Z,56.93
2018-03-16T09:50:52.008Z,58.89
2018-03-16T09:51:52.012Z,60.70
2018-03-16T09:52:52.029Z,58.96
2018-03-16T09:53:52.033Z,59.34
2018-03-16T09:54:52.044Z,61.24
2018-03-16T09:55:52.059Z,63.70
2018-03-16T09:56:52.069Z,61.17
2018-03-16T09:57:52.071Z,58.23
2018-03-16T09:58:52.087Z,59.30
2018-03-16T09:59:52.092Z,57.69
2018-03-16T10:00:52.101Z,53.54
2018-03-16T10:01:52.113Z,51.07
2018-03-16T10:02:52.126Z,48.80
2018-03-16T10:03:52.134Z,49.58
2018-03-16T10:04:52.140Z,50.72
2018-03-16T10:05:52.156Z,48.82
2018-03-16T10:06:52.167Z,48.06
2018-03-16T10:07:52.175Z,46.51
2018-03-16T10:08:52.187Z,47.47
2018-03-16T10:09:52.190Z,48.35
2018-03-16T10:10:52.200Z,48.72
2018-03-16T10:11:52.217Z,49.20
2018-03-16T10:12:52.222Z,47.30
2018-03-16T10:13:52.232Z,47.89
2018-03-16T10:14:52.247Z,48.37
2018-03-16T10:15:52.260Z,49.44
2018-03-16T10:16:52.265Z,48.06
2018-03-16T10:17:52.275Z,50.41
2018-03-16T10:18:52.292Z,50.95
2018-03-16T10:19:52.297Z,53.42
2018-03-16T10:20:52.310Z,52.00
2018-03-16T10:21:52.325Z,52.19
2018-03-16T10:22:52.333Z,53.04
2018-03-16T10:23:52.347Z,52.87
2018-03-16T10:24:52.360Z,52.05
2018-03-16T10:25:52.363Z,50.43
2018-03-16T10:26:52.373Z,50.46
2018-03-16T10:27:52.384Z,48.66
2018-03-16T10:28:52.402Z,47.99
2018-03-16T10:29:52.424Z,48.37
2018-03-16T10:30:52.424Z,49.87
2018-03-16T10:31:52.434Z,51.29
2018-03-16T10:32:52.445Z,50.65
2018-03-16T10:33:52.453Z,49.32
2018-03-16T10:34:52.463Z,49.77
2018-03-16T10:35:52.482Z,49.49
2018-03-16T10:36:52.487Z,51.89
2018-03-16T10:37:52.499Z,51.76
2018-03-16T10:38:52.519Z,52.81
2018-03-16T10:39:52.525Z,52.24
2018-03-16T10:40:52.542Z,53.41
2018-03-16T10:41:52.548Z,51.89
2018-03-16T10:42:52.562Z,52.81
2018-03-16T10:43:52.569Z,53.19
2018-03-16T10:44:52.582Z,53.38
2018-03-16T10:45:52.593Z,52.69
2018-03-16T10:46:52.605Z,53.47
2018-03-16T10:47:52.623Z,52.93
2018-03-16T10:48:52.679Z,54.55
2018-03-16T10:49:52.644Z,51.79
2018-03-16T10:50:52.656Z,49.58
2018-03-16T10:51:52.665Z,50.81
2018-03-16T10:52:52.677Z,51.39
2018-03-16T10:53:52.696Z,51.93
2018-03-16T10:54:52.700Z,52.40
2018-03-16T10:55:52.713Z,52.87
2018-03-16T10:56:52.738Z,53.76
2018-03-16T10:57:52.737Z,51.76
2018-03-16T10:58:52.752Z,51.74
2018-03-16T10:59:52.764Z,52.02
2018-03-16T11:00:52.776Z,52.02
2018-03-16T11:01:52.812Z,52.02
2018-03-16T11:02:52.800Z,51.86
2018-03-16T11:03:52.805Z,51.29
2018-03-16T11:04:52.822Z,50.81
2018-03-16T11:05:52.829Z,50.31
2018-03-16T11:06:52.841Z,51.93
2018-03-16T11:07:52.859Z,51.83
2018-03-16T11:08:52.864Z,51.93
2018-03-16T11:09:52.884Z,51.45
2018-03-16T11:10:52.894Z,52.59
2018-03-16T11:11:52.899Z,52.97
2018-03-16T11:12:52.913Z,54.97
2018-03-16T11:13:52.924Z,53.54
2018-03-16T11:14:52.934Z,52.09
2018-03-16T11:15:52.946Z,52.95
2018-03-16T11:16:52.963Z,52.76
2018-03-16T11:17:52.975Z,52.76
2018-03-16T11:18:52.987Z,52.76
2018-03-16T11:19:52.997Z,53.80
2018-03-16T11:20:53.010Z,54.27
2018-03-16T11:21:53.017Z,55.22
2018-03-16T11:22:53.031Z,55.60
2018-03-16T11:23:53.037Z,54.66
2018-03-16T11:24:53.051Z,54.75
2018-03-16T11:25:53.066Z,54.66
2018-03-16T11:26:53.071Z,56.20
2018-03-16T11:27:53.089Z,58.29
2018-03-16T11:28:53.098Z,57.15
2018-03-16T11:29:53.106Z,54.21
2018-03-16T11:30:53.122Z,52.22
2018-03-16T11:31:53.129Z,51.64
2018-03-16T11:32:53.139Z,51.07
2018-03-16T11:33:53.156Z,50.60
2018-03-16T11:34:53.161Z,50.70
2018-03-16T11:35:53.179Z,50.89
2018-03-16T11:36:53.184Z,52.59
2018-03-16T11:37:53.197Z,53.45
2018-03-16T11:38:53.212Z,53.54
2018-03-16T11:39:53.221Z,54.58
2018-03-16T11:40:53.235Z,55.91
2018-03-16T11:41:53.243Z,53.54
2018-03-16T11:42:53.253Z,51.95
2018-03-16T11:43:53.270Z,51.10
2018-03-16T11:44:53.276Z,51.20
2018-03-16T11:45:53.292Z,50.46
2018-03-16T11:46:53.300Z,51.12
2018-03-16T11:47:53.311Z,50.81
2018-03-16T11:48:53.323Z,50.72
2018-03-16T11:49:53.335Z,48.16
2018-03-16T11:50:53.352Z,47.02
2018-03-16T11:51:53.359Z,48.91
2018-03-16T11:52:53.370Z,47.68
2018-03-16T11:53:53.384Z,45.97
2018-03-16T11:54:53.398Z,46.25
2018-03-16T11:55:53.411Z,47.97
2018-03-16T11:56:53.423Z,48.25
2018-03-16T11:57:53.439Z,48.35
2018-03-16T11:58:53.446Z,49.37
2018-03-16T11:59:53.458Z,49.74
2018-03-16T12:00:53.469Z,49.84
2018-03-16T12:01:53.479Z,50.98
2018-03-16T12:02:53.488Z,52.19
2018-03-16T12:03:53.507Z,53.52
2018-03-16T12:04:53.519Z,55.76
2018-03-16T12:05:53.525Z,56.08
2018-03-16T12:06:53.536Z,54.85
2018-03-16T12:07:53.553Z,54.85
2018-03-16T12:08:53.561Z,54.18
2018-03-16T12:09:53.578Z,54.08
2018-03-16T12:10:53.590Z,53.64
2018-03-16T12:11:53.600Z,51.93
2018-03-16T12:12:53.606Z,50.60
2018-03-16T12:13:53.623Z,49.37
2018-03-16T12:14:53.634Z,48.16
2018-03-16T12:15:53.640Z,48.82
2018-03-16T12:16:53.660Z,48.44
2018-03-16T12:17:53.671Z,48.75
2018-03-16T12:18:53.678Z,48.27
2018-03-16T12:19:53.687Z,47.16
2018-03-16T12:20:53.700Z,46.66
2018-03-16T12:21:53.711Z,47.25
2018-03-16T12:22:53.727Z,46.19
2018-03-16T12:23:53.744Z,45.42
2018-03-16T12:24:53.748Z,44.62
2018-03-16T12:25:53.761Z,46.70
2018-03-16T12:26:53.775Z,47.89
2018-03-16T12:27:53.789Z,48.30
2018-03-16T12:28:53.803Z,45.85
2018-03-16T12:29:53.814Z,42.44
2018-03-16T12:30:53.881Z,43.11
2018-03-16T12:31:53.837Z,43.30
2018-03-16T12:32:53.852Z,40.33
2018-03-16T12:33:53.864Z,38.01
2018-03-16T12:34:53.876Z,40.46
2018-03-16T12:35:53.884Z,43.43
2018-03-16T12:36:53.902Z,43.33
2018-03-16T12:37:53.918Z,42.55
2018-03-16T12:38:53.931Z,44.35
2018-03-16T12:39:53.943Z,44.09
2018-03-16T12:40:53.953Z,43.90
2018-03-16T12:41:53.976Z,44.19
2018-03-16T12:42:53.976Z,46.00
2018-03-16T12:43:53.989Z,45.80
2018-03-16T12:44:54.008Z,43.16
2018-03-16T12:45:54.014Z,42.76
2018-03-16T12:46:54.027Z,44.57
2018-03-16T12:47:54.046Z,45.97
2018-03-16T12:48:54.053Z,47.58
2018-03-16T12:49:54.071Z,45.68
2018-03-16T12:50:54.079Z,44.19
2018-03-16T12:51:54.097Z,42.95
2018-03-16T12:52:54.109Z,40.29